Bacon's End, United Kingdom
Current Conditions -  °F | °C
As of 2:20 PM on Thursday 29 Jan 2015 (Local Time) from EGBB Reporting Station
Light Snow Light Snow  
Wind Chill: 25°   Ceiling: 1000
Heat Index: 34°   Visibility: 6mi
Dew Point: 32°   Wind: 12mph
Humidity: 93%   Direction: 270°W
Pressure: 28.85"   Gusts: NA
Location:  52.48°N, 1.75°W
Report Text: EGBB 291420Z AUTO 27010KT 9999 R33/1400 -SN FEW002/// SCT005/// BKN010/// 01/M00 Q0977 RESN
Loading
Personal Weather Stations






























Interactive Weather Map New forecast layout! Learn more

10-Day Weather Forecast

Advertisements
Track Severe Weather on mobile